sensor_id;sensor_type;location;lat;lon;timestamp;temperature;humidity
23755;DHT22;12057;52.042;6.830;2023-05-02T00:03:58;11.70;99.90
23755;DHT22;12057;52.042;6.830;2023-05-02T00:08:59;11.60;99.90
23755;DHT22;12057;52.042;6.830;2023-05-02T00:14:00;11.50;99.90
23755;DHT22;12057;52.042;6.830;2023-05-02T00:19:01;11.40;99.90
23755;DHT22;12057;52.042;6.830;2023-05-02T00:24:02;11.50;99.90
23755;DHT22;12057;52.042;6.830;2023-05-02T00:29:02;11.60;99.90
23755;DHT22;12057;52.042;6.830;2023-05-02T00:34:03;11.70;99.90
23755;DHT22;12057;52.042;6.830;2023-05-02T00:39:04;11.80;99.90
23755;DHT22;12057;52.042;6.830;2023-05-02T00:44:05;11.80;99.90
23755;DHT22;12057;52.042;6.830;2023-05-02T00:49:12;11.80;99.90
23755;DHT22;12057;52.042;6.830;2023-05-02T00:54:13;11.80;99.90
23755;DHT22;12057;52.042;6.830;2023-05-02T00:59:15;11.80;99.90
23755;DHT22;12057;52.042;6.830;2023-05-02T01:09:41;11.80;99.90
23755;DHT22;12057;52.042;6.830;2023-05-02T01:14:52;11.80;99.90
23755;DHT22;12057;52.042;6.830;2023-05-02T01:19:57;11.90;99.90
23755;DHT22;12057;52.042;6.830;2023-05-02T01:30:01;11.90;99.90
23755;DHT22;12057;52.042;6.830;2023-05-02T01:35:04;11.90;99.90
23755;DHT22;12057;52.042;6.830;2023-05-02T01:40:07;11.90;99.90
23755;DHT22;12057;52.042;6.830;2023-05-02T01:45:10;11.90;99.90
23755;DHT22;12057;52.042;6.830;2023-05-02T01:50:15;12.00;99.90
23755;DHT22;12057;52.042;6.830;2023-05-02T01:55:17;12.00;99.90
23755;DHT22;12057;52.042;6.830;2023-05-02T02:00:18;12.00;99.90
23755;DHT22;12057;52.042;6.830;2023-05-02T02:05:21;12.00;99.90
23755;DHT22;12057;52.042;6.830;2023-05-02T02:10:25;12.00;99.90
23755;DHT22;12057;52.042;6.830;2023-05-02T02:15:33;12.00;99.90
23755;DHT22;12057;52.042;6.830;2023-05-02T02:20:35;12.00;99.90
23755;DHT22;12057;52.042;6.830;2023-05-02T02:25:36;12.10;99.90
23755;DHT22;12057;52.042;6.830;2023-05-02T02:30:37;12.00;99.90
23755;DHT22;12057;52.042;6.830;2023-05-02T02:35:42;11.90;99.90
23755;DHT22;12057;52.042;6.830;2023-05-02T02:40:48;12.00;99.90
23755;DHT22;12057;52.042;6.830;2023-05-02T02:51:45;11.90;99.90
23755;DHT22;12057;52.042;6.830;2023-05-02T02:57:03;11.90;99.90
23755;DHT22;12057;52.042;6.830;2023-05-02T03:02:07;11.80;99.90
23755;DHT22;12057;52.042;6.830;2023-05-02T03:07:08;11.70;99.90
23755;DHT22;12057;52.042;6.830;2023-05-02T03:12:09;11.70;99.90
23755;DHT22;12057;52.042;6.830;2023-05-02T03:17:16;11.60;99.90
23755;DHT22;12057;52.042;6.830;2023-05-02T03:22:17;11.60;99.90
23755;DHT22;12057;52.042;6.830;2023-05-02T03:27:18;11.30;99.90
23755;DHT22;12057;52.042;6.830;2023-05-02T03:32:18;11.30;99.90
23755;DHT22;12057;52.042;6.830;2023-05-02T03:37:19;11.20;99.90
23755;DHT22;12057;52.042;6.830;2023-05-02T03:42:20;11.10;99.90
23755;DHT22;12057;52.042;6.830;2023-05-02T03:47:21;11.20;99.90
23755;DHT22;12057;52.042;6.830;2023-05-02T03:52:22;11.00;99.90
23755;DHT22;12057;52.042;6.830;2023-05-02T03:57:23;10.90;99.90
23755;DHT22;12057;52.042;6.830;2023-05-02T04:02:23;10.80;99.90
23755;DHT22;12057;52.042;6.830;2023-05-02T04:07:24;10.90;99.90
23755;DHT22;12057;52.042;6.830;2023-05-02T04:12:25;10.90;99.90
23755;DHT22;12057;52.042;6.830;2023-05-02T04:17:26;11.00;99.90
23755;DHT22;12057;52.042;6.830;2023-05-02T04:22:27;11.00;99.90
23755;DHT22;12057;52.042;6.830;2023-05-02T04:27:28;11.00;99.90
23755;DHT22;12057;52.042;6.830;2023-05-02T04:32:29;11.00;99.90
23755;DHT22;12057;52.042;6.830;2023-05-02T04:37:29;11.20;99.90
23755;DHT22;12057;52.042;6.830;2023-05-02T04:42:30;11.20;99.90
23755;DHT22;12057;52.042;6.830;2023-05-02T04:47:31;11.10;99.90
23755;DHT22;12057;52.042;6.830;2023-05-02T04:52:32;11.20;99.90
23755;DHT22;12057;52.042;6.830;2023-05-02T04:57:32;11.10;99.90
23755;DHT22;12057;52.042;6.830;2023-05-02T05:02:33;11.00;99.90
23755;DHT22;12057;52.042;6.830;2023-05-02T05:07:34;11.10;99.90
23755;DHT22;12057;52.042;6.830;2023-05-02T05:12:35;11.20;99.90
23755;DHT22;12057;52.042;6.830;2023-05-02T05:17:35;11.00;99.90
23755;DHT22;12057;52.042;6.830;2023-05-02T05:22:40;10.80;99.90
23755;DHT22;12057;52.042;6.830;2023-05-02T05:27:41;10.60;99.90
23755;DHT22;12057;52.042;6.830;2023-05-02T05:32:42;10.50;99.90
23755;DHT22;12057;52.042;6.830;2023-05-02T05:37:43;10.40;99.90
23755;DHT22;12057;52.042;6.830;2023-05-02T05:42:44;10.10;99.90
23755;DHT22;12057;52.042;6.830;2023-05-02T05:47:44;9.80;99.90
23755;DHT22;12057;52.042;6.830;2023-05-02T05:52:45;9.70;99.90
23755;DHT22;12057;52.042;6.830;2023-05-02T05:57:46;9.50;99.90
23755;DHT22;12057;52.042;6.830;2023-05-02T06:02:47;9.30;99.90
23755;DHT22;12057;52.042;6.830;2023-05-02T06:07:47;9.20;99.90
23755;DHT22;12057;52.042;6.830;2023-05-02T06:12:48;8.90;99.90
23755;DHT22;12057;52.042;6.830;2023-05-02T06:17:52;8.90;99.90
23755;DHT22;12057;52.042;6.830;2023-05-02T06:22:53;8.70;99.90
23755;DHT22;12057;52.042;6.830;2023-05-02T06:27:54;8.60;99.90
23755;DHT22;12057;52.042;6.830;2023-05-02T06:32:54;8.60;99.90
23755;DHT22;12057;52.042;6.830;2023-05-02T06:37:55;8.60;99.90
23755;DHT22;12057;52.042;6.830;2023-05-02T06:42:56;8.60;99.90
23755;DHT22;12057;52.042;6.830;2023-05-02T06:47:57;8.50;99.90
23755;DHT22;12057;52.042;6.830;2023-05-02T06:52:57;8.50;99.90
23755;DHT22;12057;52.042;6.830;2023-05-02T06:57:58;8.60;99.90
23755;DHT22;12057;52.042;6.830;2023-05-02T07:02:59;8.50;99.90
23755;DHT22;12057;52.042;6.830;2023-05-02T07:08:00;8.50;99.90
23755;DHT22;12057;52.042;6.830;2023-05-02T07:13:01;8.50;99.90
23755;DHT22;12057;52.042;6.830;2023-05-02T07:18:01;8.70;99.90
23755;DHT22;12057;52.042;6.830;2023-05-02T07:23:02;8.80;99.90
23755;DHT22;12057;52.042;6.830;2023-05-02T07:28:03;8.90;99.90
23755;DHT22;12057;52.042;6.830;2023-05-02T07:33:04;9.00;99.90
23755;DHT22;12057;52.042;6.830;2023-05-02T07:38:05;9.30;99.90
23755;DHT22;12057;52.042;6.830;2023-05-02T07:43:06;9.40;99.90
23755;DHT22;12057;52.042;6.830;2023-05-02T07:48:07;9.30;99.90
23755;DHT22;12057;52.042;6.830;2023-05-02T07:53:07;9.10;99.90
23755;DHT22;12057;52.042;6.830;2023-05-02T07:58:08;9.20;99.90
23755;DHT22;12057;52.042;6.830;2023-05-02T08:03:09;9.50;99.90
23755;DHT22;12057;52.042;6.830;2023-05-02T08:08:10;9.60;99.90
23755;DHT22;12057;52.042;6.830;2023-05-02T08:13:11;9.60;99.90
23755;DHT22;12057;52.042;6.830;2023-05-02T08:18:12;9.70;99.90
23755;DHT22;12057;52.042;6.830;2023-05-02T08:23:13;9.90;99.90
23755;DHT22;12057;52.042;6.830;2023-05-02T08:28:13;10.10;99.90
23755;DHT22;12057;52.042;6.830;2023-05-02T08:33:14;10.30;99.90
23755;DHT22;12057;52.042;6.830;2023-05-02T08:38:15;10.30;99.90
23755;DHT22;12057;52.042;6.830;2023-05-02T08:43:16;10.50;99.90
23755;DHT22;12057;52.042;6.830;2023-05-02T08:48:17;10.80;99.90
23755;DHT22;12057;52.042;6.830;2023-05-02T08:53:19;11.00;99.90
23755;DHT22;12057;52.042;6.830;2023-05-02T08:58:20;10.90;99.90
23755;DHT22;12057;52.042;6.830;2023-05-02T09:03:35;11.00;99.90
23755;DHT22;12057;52.042;6.830;2023-05-02T09:08:36;11.00;99.90
23755;DHT22;12057;52.042;6.830;2023-05-02T09:13:45;11.10;99.90
23755;DHT22;12057;52.042;6.830;2023-05-02T09:18:47;11.00;99.90
23755;DHT22;12057;52.042;6.830;2023-05-02T09:23:50;11.20;99.90
23755;DHT22;12057;52.042;6.830;2023-05-02T09:28:53;11.20;99.90
23755;DHT22;12057;52.042;6.830;2023-05-02T09:33:55;10.90;99.90
23755;DHT22;12057;52.042;6.830;2023-05-02T09:39:11;10.80;99.90
23755;DHT22;12057;52.042;6.830;2023-05-02T09:44:17;10.80;99.90
23755;DHT22;12057;52.042;6.830;2023-05-02T09:49:26;11.00;99.90
23755;DHT22;12057;52.042;6.830;2023-05-02T09:54:37;11.30;99.90
23755;DHT22;12057;52.042;6.830;2023-05-02T09:59:39;11.30;99.90
23755;DHT22;12057;52.042;6.830;2023-05-02T10:04:40;12.20;99.90
23755;DHT22;12057;52.042;6.830;2023-05-02T10:09:43;13.00;99.90
23755;DHT22;12057;52.042;6.830;2023-05-02T10:14:48;12.90;99.90
23755;DHT22;12057;52.042;6.830;2023-05-02T10:19:56;12.70;99.90
23755;DHT22;12057;52.042;6.830;2023-05-02T10:24:59;12.10;99.90
23755;DHT22;12057;52.042;6.830;2023-05-02T10:30:04;12.40;99.90
23755;DHT22;12057;52.042;6.830;2023-05-02T10:35:06;13.20;99.90
23755;DHT22;12057;52.042;6.830;2023-05-02T10:40:11;13.30;99.90
23755;DHT22;12057;52.042;6.830;2023-05-02T10:45:32;13.90;99.90
23755;DHT22;12057;52.042;6.830;2023-05-02T10:50:50;14.10;99.50
23755;DHT22;12057;52.042;6.830;2023-05-02T11:06:32;13.70;98.80
23755;DHT22;12057;52.042;6.830;2023-05-02T11:11:38;14.30;97.30
23755;DHT22;12057;52.042;6.830;2023-05-02T11:38:04;13.40;97.00
23755;DHT22;12057;52.042;6.830;2023-05-02T11:43:16;13.90;97.90
23755;DHT22;12057;52.042;6.830;2023-05-02T11:48:20;14.00;96.50
23755;DHT22;12057;52.042;6.830;2023-05-02T11:53:27;13.90;97.60
23755;DHT22;12057;52.042;6.830;2023-05-02T11:58:31;13.70;97.40
23755;DHT22;12057;52.042;6.830;2023-05-02T12:03:33;13.20;96.90
23755;DHT22;12057;52.042;6.830;2023-05-02T12:08:33;13.70;97.90
23755;DHT22;12057;52.042;6.830;2023-05-02T12:13:34;14.40;95.80
23755;DHT22;12057;52.042;6.830;2023-05-02T12:18:44;14.80;95.10
23755;DHT22;12057;52.042;6.830;2023-05-02T12:23:45;14.20;96.90
23755;DHT22;12057;52.042;6.830;2023-05-02T12:28:53;14.00;95.00
23755;DHT22;12057;52.042;6.830;2023-05-02T12:33:54;13.60;95.60
23755;DHT22;12057;52.042;6.830;2023-05-02T12:38:57;13.70;95.20
23755;DHT22;12057;52.042;6.830;2023-05-02T12:43:59;13.90;95.80
23755;DHT22;12057;52.042;6.830;2023-05-02T12:49:04;14.40;94.50
23755;DHT22;12057;52.042;6.830;2023-05-02T12:54:05;14.50;94.20
23755;DHT22;12057;52.042;6.830;2023-05-02T12:59:06;13.90;94.80
23755;DHT22;12057;52.042;6.830;2023-05-02T13:04:07;14.00;95.60
23755;DHT22;12057;52.042;6.830;2023-05-02T13:09:08;14.20;94.80
23755;DHT22;12057;52.042;6.830;2023-05-02T13:14:09;14.20;96.80
23755;DHT22;12057;52.042;6.830;2023-05-02T13:19:10;13.90;95.50
23755;DHT22;12057;52.042;6.830;2023-05-02T13:24:11;13.80;95.20
23755;DHT22;12057;52.042;6.830;2023-05-02T13:29:12;14.20;95.20
23755;DHT22;12057;52.042;6.830;2023-05-02T13:34:13;14.40;92.60
23755;DHT22;12057;52.042;6.830;2023-05-02T13:39:14;14.60;92.00
23755;DHT22;12057;52.042;6.830;2023-05-02T13:44:14;15.30;94.20
23755;DHT22;12057;52.042;6.830;2023-05-02T13:49:15;15.40;93.10
23755;DHT22;12057;52.042;6.830;2023-05-02T13:54:16;15.00;92.20
23755;DHT22;12057;52.042;6.830;2023-05-02T13:59:17;14.90;92.90
23755;DHT22;12057;52.042;6.830;2023-05-02T14:04:17;15.20;91.40
23755;DHT22;12057;52.042;6.830;2023-05-02T14:09:18;15.10;90.90
23755;DHT22;12057;52.042;6.830;2023-05-02T14:14:20;14.60;91.80
23755;DHT22;12057;52.042;6.830;2023-05-02T14:19:20;14.00;92.10
23755;DHT22;12057;52.042;6.830;2023-05-02T14:24:21;13.40;92.00
23755;DHT22;12057;52.042;6.830;2023-05-02T14:29:22;13.20;92.90
23755;DHT22;12057;52.042;6.830;2023-05-02T14:34:23;13.00;93.40
23755;DHT22;12057;52.042;6.830;2023-05-02T14:39:26;13.50;94.20
23755;DHT22;12057;52.042;6.830;2023-05-02T14:44:27;13.50;93.30
23755;DHT22;12057;52.042;6.830;2023-05-02T14:49:27;13.10;93.60
23755;DHT22;12057;52.042;6.830;2023-05-02T14:54:28;12.60;92.50
23755;DHT22;12057;52.042;6.830;2023-05-02T14:59:30;12.80;94.00
23755;DHT22;12057;52.042;6.830;2023-05-02T15:04:30;13.40;92.30
23755;DHT22;12057;52.042;6.830;2023-05-02T15:09:31;13.80;92.20
23755;DHT22;12057;52.042;6.830;2023-05-02T15:14:32;14.30;91.40
23755;DHT22;12057;52.042;6.830;2023-05-02T15:19:33;14.50;91.60
23755;DHT22;12057;52.042;6.830;2023-05-02T15:24:34;14.10;92.50
23755;DHT22;12057;52.042;6.830;2023-05-02T15:29:34;13.50;93.10
23755;DHT22;12057;52.042;6.830;2023-05-02T15:34:35;13.30;93.00
23755;DHT22;12057;52.042;6.830;2023-05-02T15:39:36;13.30;93.20
23755;DHT22;12057;52.042;6.830;2023-05-02T15:44:37;13.80;93.40
23755;DHT22;12057;52.042;6.830;2023-05-02T15:49:38;14.10;91.90
23755;DHT22;12057;52.042;6.830;2023-05-02T15:54:38;13.90;90.80
23755;DHT22;12057;52.042;6.830;2023-05-02T15:59:39;14.10;91.40
23755;DHT22;12057;52.042;6.830;2023-05-02T16:04:40;13.80;91.90
23755;DHT22;12057;52.042;6.830;2023-05-02T16:09:42;13.40;92.60
23755;DHT22;12057;52.042;6.830;2023-05-02T16:14:43;13.10;92.90
23755;DHT22;12057;52.042;6.830;2023-05-02T16:19:44;12.70;93.60
23755;DHT22;12057;52.042;6.830;2023-05-02T16:24:45;12.70;94.40
23755;DHT22;12057;52.042;6.830;2023-05-02T16:29:45;12.80;94.40
23755;DHT22;12057;52.042;6.830;2023-05-02T16:34:46;12.80;94.60
23755;DHT22;12057;52.042;6.830;2023-05-02T16:39:47;12.70;94.50
23755;DHT22;12057;52.042;6.830;2023-05-02T16:44:48;12.60;95.20
23755;DHT22;12057;52.042;6.830;2023-05-02T16:49:56;12.60;94.40
23755;DHT22;12057;52.042;6.830;2023-05-02T16:54:57;12.50;93.90
23755;DHT22;12057;52.042;6.830;2023-05-02T16:59:58;12.40;95.00
23755;DHT22;12057;52.042;6.830;2023-05-02T17:04:59;12.30;95.90
23755;DHT22;12057;52.042;6.830;2023-05-02T17:10:00;12.10;95.20
23755;DHT22;12057;52.042;6.830;2023-05-02T17:15:01;12.00;96.50
23755;DHT22;12057;52.042;6.830;2023-05-02T17:20:02;12.00;96.60
23755;DHT22;12057;52.042;6.830;2023-05-02T17:25:06;12.20;98.50
23755;DHT22;12057;52.042;6.830;2023-05-02T17:30:07;12.20;96.90
23755;DHT22;12057;52.042;6.830;2023-05-02T17:35:08;12.40;96.80
23755;DHT22;12057;52.042;6.830;2023-05-02T17:40:10;12.60;98.10
23755;DHT22;12057;52.042;6.830;2023-05-02T17:45:11;12.50;96.40
23755;DHT22;12057;52.042;6.830;2023-05-02T17:50:13;12.10;96.80
23755;DHT22;12057;52.042;6.830;2023-05-02T17:55:13;11.90;96.40
23755;DHT22;12057;52.042;6.830;2023-05-02T18:00:14;11.70;97.00
23755;DHT22;12057;52.042;6.830;2023-05-02T18:05:16;11.60;98.10
23755;DHT22;12057;52.042;6.830;2023-05-02T18:10:17;11.50;97.90
23755;DHT22;12057;52.042;6.830;2023-05-02T18:15:17;11.40;97.90
23755;DHT22;12057;52.042;6.830;2023-05-02T18:20:18;11.30;98.10
23755;DHT22;12057;52.042;6.830;2023-05-02T18:25:19;11.20;98.20
23755;DHT22;12057;52.042;6.830;2023-05-02T18:30:20;11.00;98.60
23755;DHT22;12057;52.042;6.830;2023-05-02T18:35:21;10.90;99.30
23755;DHT22;12057;52.042;6.830;2023-05-02T18:40:22;10.90;99.50
23755;DHT22;12057;52.042;6.830;2023-05-02T18:45:23;10.80;99.90
23755;DHT22;12057;52.042;6.830;2023-05-02T18:50:24;10.70;99.90
23755;DHT22;12057;52.042;6.830;2023-05-02T18:55:25;10.60;99.90
23755;DHT22;12057;52.042;6.830;2023-05-02T19:00:27;10.50;99.90
23755;DHT22;12057;52.042;6.830;2023-05-02T19:05:30;10.40;99.90
23755;DHT22;12057;52.042;6.830;2023-05-02T19:10:34;10.30;99.90
23755;DHT22;12057;52.042;6.830;2023-05-02T19:15:34;10.20;99.90
23755;DHT22;12057;52.042;6.830;2023-05-02T19:20:35;10.20;99.90
23755;DHT22;12057;52.042;6.830;2023-05-02T19:25:39;10.20;99.90
23755;DHT22;12057;52.042;6.830;2023-05-02T19:30:41;10.30;99.90
23755;DHT22;12057;52.042;6.830;2023-05-02T19:35:41;10.20;99.90
23755;DHT22;12057;52.042;6.830;2023-05-02T19:40:42;10.20;99.90
23755;DHT22;12057;52.042;6.830;2023-05-02T19:45:43;10.10;99.90
23755;DHT22;12057;52.042;6.830;2023-05-02T19:50:44;10.10;99.90
23755;DHT22;12057;52.042;6.830;2023-05-02T19:55:45;10.00;99.90
23755;DHT22;12057;52.042;6.830;2023-05-02T20:00:46;9.90;99.90
23755;DHT22;12057;52.042;6.830;2023-05-02T20:05:49;9.80;99.90
23755;DHT22;12057;52.042;6.830;2023-05-02T20:10:50;9.70;99.90
23755;DHT22;12057;52.042;6.830;2023-05-02T20:15:52;9.60;99.90
23755;DHT22;12057;52.042;6.830;2023-05-02T20:20:52;9.50;99.90
23755;DHT22;12057;52.042;6.830;2023-05-02T20:25:53;9.30;99.90
23755;DHT22;12057;52.042;6.830;2023-05-02T20:30:54;9.20;99.90
23755;DHT22;12057;52.042;6.830;2023-05-02T20:35:55;9.10;99.90
23755;DHT22;12057;52.042;6.830;2023-05-02T20:40:56;9.00;99.90
23755;DHT22;12057;52.042;6.830;2023-05-02T20:45:57;8.90;99.90
23755;DHT22;12057;52.042;6.830;2023-05-02T20:50:57;8.80;99.90
23755;DHT22;12057;52.042;6.830;2023-05-02T20:55:58;8.70;99.90
23755;DHT22;12057;52.042;6.830;2023-05-02T21:00:59;8.60;99.90
23755;DHT22;12057;52.042;6.830;2023-05-02T21:06:00;8.60;99.90
23755;DHT22;12057;52.042;6.830;2023-05-02T21:11:01;8.50;99.90
23755;DHT22;12057;52.042;6.830;2023-05-02T21:16:01;8.40;99.90
23755;DHT22;12057;52.042;6.830;2023-05-02T21:21:02;8.30;99.90
23755;DHT22;12057;52.042;6.830;2023-05-02T21:26:03;8.30;99.90
23755;DHT22;12057;52.042;6.830;2023-05-02T21:31:05;8.20;99.90
23755;DHT22;12057;52.042;6.830;2023-05-02T21:36:06;8.20;99.90
23755;DHT22;12057;52.042;6.830;2023-05-02T21:41:07;8.10;99.90
23755;DHT22;12057;52.042;6.830;2023-05-02T21:46:11;8.00;99.90
23755;DHT22;12057;52.042;6.830;2023-05-02T21:51:12;8.10;99.90
23755;DHT22;12057;52.042;6.830;2023-05-02T21:56:13;8.10;99.90
23755;DHT22;12057;52.042;6.830;2023-05-02T22:01:14;8.00;99.90
23755;DHT22;12057;52.042;6.830;2023-05-02T22:06:15;7.90;99.90
23755;DHT22;12057;52.042;6.830;2023-05-02T22:11:16;7.70;99.90
23755;DHT22;12057;52.042;6.830;2023-05-02T22:16:17;7.70;99.90
23755;DHT22;12057;52.042;6.830;2023-05-02T22:21:18;7.70;99.90
23755;DHT22;12057;52.042;6.830;2023-05-02T22:26:21;7.60;99.90
23755;DHT22;12057;52.042;6.830;2023-05-02T22:31:21;7.50;99.90
23755;DHT22;12057;52.042;6.830;2023-05-02T22:36:22;7.40;99.90
23755;DHT22;12057;52.042;6.830;2023-05-02T22:41:23;7.40;99.90
23755;DHT22;12057;52.042;6.830;2023-05-02T22:46:24;7.40;99.90
23755;DHT22;12057;52.042;6.830;2023-05-02T22:51:25;7.30;99.90
23755;DHT22;12057;52.042;6.830;2023-05-02T22:56:26;7.20;99.90
23755;DHT22;12057;52.042;6.830;2023-05-02T23:01:27;7.10;99.90
23755;DHT22;12057;52.042;6.830;2023-05-02T23:06:28;7.20;99.90
23755;DHT22;12057;52.042;6.830;2023-05-02T23:11:28;7.20;99.90
23755;DHT22;12057;52.042;6.830;2023-05-02T23:16:29;7.20;99.90
23755;DHT22;12057;52.042;6.830;2023-05-02T23:21:30;7.20;99.90
23755;DHT22;12057;52.042;6.830;2023-05-02T23:26:31;7.20;99.90
23755;DHT22;12057;52.042;6.830;2023-05-02T23:31:32;7.10;99.90
23755;DHT22;12057;52.042;6.830;2023-05-02T23:36:33;7.10;99.90
23755;DHT22;12057;52.042;6.830;2023-05-02T23:41:34;7.00;99.90
23755;DHT22;12057;52.042;6.830;2023-05-02T23:46:35;6.90;99.90
23755;DHT22;12057;52.042;6.830;2023-05-02T23:51:36;6.80;99.90
23755;DHT22;12057;52.042;6.830;2023-05-02T23:56:37;6.70;99.90
